createdAt,value
2022-10-17T00:00:42.670Z,94685.34
2022-10-17T00:03:10.358Z,94683.16
2022-10-17T00:05:41.995Z,94690.56
2022-10-17T00:08:09.893Z,94681.81
2022-10-17T00:10:37.576Z,94688.84
2022-10-17T00:13:05.053Z,94696.63
2022-10-17T00:15:32.938Z,94699.31
2022-10-17T00:18:00.106Z,94697.28
2022-10-17T00:20:27.314Z,94699.69
2022-10-17T00:22:54.834Z,94697.94
2022-10-17T00:25:22.043Z,94699.38
2022-10-17T00:27:49.133Z,94698.91
2022-10-17T00:30:17.222Z,94701.44
2022-10-17T00:32:44.436Z,94702.75
2022-10-17T00:35:11.824Z,94699.19
2022-10-17T00:37:39.253Z,94707.91
2022-10-17T00:40:07.107Z,94703.91
2022-10-17T00:42:34.245Z,94702.94
2022-10-17T00:45:19.232Z,94699.56
2022-10-17T00:47:49.140Z,94698.13
2022-10-17T00:50:17.736Z,94697.53
2022-10-17T00:52:46.062Z,94704.16
2022-10-17T00:55:39.573Z,94702.03
2022-10-17T00:58:06.967Z,94702.06
2022-10-17T01:00:37.060Z,94701.38
2022-10-17T01:03:04.545Z,94694.91
2022-10-17T01:05:32.407Z,94696.34
2022-10-17T01:07:59.766Z,94696.66
2022-10-17T01:10:30.063Z,94696.53
2022-10-17T01:13:06.227Z,94697.19
2022-10-17T01:15:33.306Z,94688.25
2022-10-17T01:18:06.958Z,94693.75
2022-10-17T01:20:40.144Z,94693.41
2022-10-17T01:23:13.577Z,94695.38
2022-10-17T01:25:44.172Z,94694.06
2022-10-17T01:28:20.090Z,94697.50
2022-10-17T01:30:50.298Z,94698.28
2022-10-17T01:33:38.078Z,94694.72
2022-10-17T01:36:10.506Z,94697.19
2022-10-17T01:38:53.264Z,94692.81
2022-10-17T01:41:39.263Z,94691.19
2022-10-17T01:44:39.286Z,94686.50
2022-10-17T01:47:11.968Z,94694.44
2022-10-17T01:49:41.145Z,94696.22
2022-10-17T01:52:14.665Z,94699.78
2022-10-17T01:54:47.796Z,94699.78
2022-10-17T01:57:35.254Z,94709.16
2022-10-17T02:00:04.911Z,94704.47
2022-10-17T02:02:40.355Z,94711.13
2022-10-17T02:05:08.604Z,94709.16
2022-10-17T02:07:35.742Z,94716.44
2022-10-17T02:10:04.660Z,94717.59
2022-10-17T02:12:45.825Z,94722.78
2022-10-17T02:15:23.769Z,94722.09
2022-10-17T02:18:01.135Z,94723.59
2022-10-17T02:20:34.306Z,94725.69
2022-10-17T02:23:14.002Z,94731.06
2022-10-17T02:25:49.156Z,94732.50
2022-10-17T02:28:31.685Z,94723.56
2022-10-17T02:31:20.358Z,94736.06
2022-10-17T02:33:51.775Z,94730.38
2022-10-17T02:36:22.600Z,94727.78
2022-10-17T02:38:52.872Z,94726.63
2022-10-17T02:41:21.531Z,94731.19
2022-10-17T02:43:49.968Z,94735.06
2022-10-17T02:46:21.343Z,94737.53
2022-10-17T02:48:53.703Z,94739.81
2022-10-17T02:51:22.001Z,94740.91
2022-10-17T02:54:10.065Z,94743.94
2022-10-17T02:56:43.108Z,94748.13
2022-10-17T02:59:12.514Z,94758.53
2022-10-17T03:01:39.766Z,94749.06
2022-10-17T03:04:11.185Z,94750.69
2022-10-17T03:06:39.240Z,94753.06
2022-10-17T03:09:08.105Z,94754.72
2022-10-17T03:11:35.320Z,94754.12
2022-10-17T03:14:02.829Z,94752.03
2022-10-17T03:16:29.984Z,94752.19
2022-10-17T03:18:57.160Z,94756.56
2022-10-17T03:21:24.628Z,94754.12
2022-10-17T03:23:52.101Z,94761.09
2022-10-17T03:26:19.706Z,94758.03
2022-10-17T03:28:50.658Z,94756.59
2022-10-17T03:31:21.062Z,94754.84
2022-10-17T03:33:48.991Z,94760.00
2022-10-17T03:36:17.446Z,94758.06
2022-10-17T03:38:44.991Z,94761.75
2022-10-17T03:41:13.140Z,94765.94
2022-10-17T03:43:40.231Z,94766.09
2022-10-17T03:46:08.333Z,94768.38
2022-10-17T03:48:36.996Z,94761.12
2022-10-17T03:51:05.706Z,94764.84
2022-10-17T03:53:33.702Z,94768.56
2022-10-17T03:56:11.391Z,94774.06
2022-10-17T03:58:38.868Z,94773.72
2022-10-17T04:01:07.541Z,94776.34
2022-10-17T04:03:35.124Z,94772.16
2022-10-17T04:06:03.071Z,94782.19
2022-10-17T04:08:31.905Z,94771.31
2022-10-17T04:11:04.937Z,94773.28
2022-10-17T04:13:32.279Z,94777.84
2022-10-17T04:16:01.328Z,94775.75
2022-10-17T04:18:29.306Z,94771.19
2022-10-17T04:20:56.671Z,94776.50
2022-10-17T04:23:24.101Z,94782.00
2022-10-17T04:25:55.594Z,94785.06
2022-10-17T04:28:23.982Z,94782.00
2022-10-17T04:31:02.421Z,94790.50
2022-10-17T04:33:31.591Z,94790.38
2022-10-17T04:36:00.152Z,94788.78
2022-10-17T04:38:28.703Z,94791.56
2022-10-17T04:41:03.691Z,94799.00
2022-10-17T04:43:32.224Z,94799.50
2022-10-17T04:46:00.225Z,94799.62
2022-10-17T04:48:28.239Z,94802.25
2022-10-17T04:50:57.079Z,94802.37
2022-10-17T04:53:25.445Z,94794.94
2022-10-17T04:55:52.661Z,94805.50
2022-10-17T04:58:20.837Z,94803.06
2022-10-17T05:00:48.432Z,94804.22
2022-10-17T05:03:16.964Z,94800.72
2022-10-17T05:05:44.651Z,94804.25
2022-10-17T05:08:12.690Z,94814.16
2022-10-17T05:10:41.073Z,94812.84
2022-10-17T05:13:09.223Z,94809.63
2022-10-17T05:15:37.183Z,94814.66
2022-10-17T05:18:04.744Z,94813.69
2022-10-17T05:20:32.794Z,94817.37
2022-10-17T05:23:00.530Z,94821.44
2022-10-17T05:25:29.028Z,94817.37
2022-10-17T05:27:56.461Z,94833.91
2022-10-17T05:30:23.596Z,94826.16
2022-10-17T05:32:54.971Z,94828.75
2022-10-17T05:35:23.685Z,94830.53
2022-10-17T05:37:52.230Z,94834.09
2022-10-17T05:40:20.258Z,94843.16
2022-10-17T05:42:49.642Z,94836.84
2022-10-17T05:45:17.899Z,94835.25
2022-10-17T05:47:46.241Z,94829.06
2022-10-17T05:50:13.951Z,94838.31
2022-10-17T05:52:45.081Z,94835.22
2022-10-17T05:55:15.426Z,94842.03
2022-10-17T05:57:42.549Z,94849.16
2022-10-17T06:00:10.705Z,94854.34
2022-10-17T06:02:41.310Z,94849.50
2022-10-17T06:05:09.383Z,94855.16
2022-10-17T06:07:36.867Z,94850.78
2022-10-17T06:10:05.030Z,94846.19
2022-10-17T06:12:32.683Z,94844.88
2022-10-17T06:14:59.904Z,94854.59
2022-10-17T06:17:28.326Z,94857.03
2022-10-17T06:19:57.281Z,94853.91
2022-10-17T06:22:24.533Z,94852.47
2022-10-17T06:24:53.869Z,94859.72
2022-10-17T06:27:21.570Z,94858.19
2022-10-17T06:29:48.978Z,94847.84
2022-10-17T06:32:17.290Z,94853.31
2022-10-17T06:34:45.211Z,94864.16
2022-10-17T06:37:12.358Z,94867.91
2022-10-17T06:39:39.780Z,94872.63
2022-10-17T06:42:07.848Z,94869.34
2022-10-17T06:44:36.292Z,94872.06
2022-10-17T06:47:09.788Z,94868.12
2022-10-17T06:49:37.224Z,94864.72
2022-10-17T06:52:04.630Z,94865.41
2022-10-17T06:54:32.636Z,94856.59
2022-10-17T06:57:01.111Z,94858.22
2022-10-17T06:59:28.831Z,94860.09
2022-10-17T07:01:56.655Z,94852.06
2022-10-17T07:04:24.010Z,94865.94
2022-10-17T07:06:51.265Z,94862.22
2022-10-17T07:09:19.134Z,94854.16
2022-10-17T07:11:46.469Z,94856.22
2022-10-17T07:14:16.469Z,94866.19
2022-10-17T07:16:44.162Z,94862.59
2022-10-17T07:19:12.144Z,94860.12
2022-10-17T07:21:39.619Z,94866.50
2022-10-17T07:24:07.713Z,94872.78
2022-10-17T07:26:35.001Z,94866.50
2022-10-17T07:29:02.569Z,94859.38
2022-10-17T07:31:30.192Z,94858.66
2022-10-17T07:33:59.305Z,94853.12
2022-10-17T07:36:26.666Z,94855.06
2022-10-17T07:38:54.892Z,94859.66
2022-10-17T07:41:22.239Z,94849.19
2022-10-17T07:43:49.621Z,94859.31
2022-10-17T07:46:18.949Z,94850.56
2022-10-17T07:48:46.248Z,94854.56
2022-10-17T07:51:13.470Z,94856.69
2022-10-17T07:53:46.442Z,94846.25
2022-10-17T07:56:15.970Z,94847.97
2022-10-17T07:58:43.427Z,94848.19
2022-10-17T08:01:16.219Z,94844.03
2022-10-17T08:03:44.526Z,94847.25
2022-10-17T08:06:12.067Z,94850.06
2022-10-17T08:08:39.193Z,94843.16
2022-10-17T08:11:08.012Z,94836.41
2022-10-17T08:13:35.627Z,94834.97
2022-10-17T08:16:03.655Z,94824.84
2022-10-17T08:18:31.163Z,94825.44
2022-10-17T08:21:02.209Z,94828.31
2022-10-17T08:23:29.333Z,94825.75
2022-10-17T08:25:59.209Z,94819.75
2022-10-17T08:28:26.330Z,94813.44
2022-10-17T08:30:53.490Z,94815.31
2022-10-17T08:33:20.902Z,94809.44
2022-10-17T08:35:48.322Z,94805.50
2022-10-17T08:38:17.806Z,94803.53
2022-10-17T08:40:49.210Z,94805.47
2022-10-17T08:43:31.233Z,94803.59
2022-10-17T08:46:03.763Z,94806.22
2022-10-17T08:48:37.362Z,94798.47
2022-10-17T08:51:13.332Z,94812.13
2022-10-17T08:53:44.035Z,94797.78
2022-10-17T08:56:44.093Z,94805.28
2022-10-17T08:59:33.617Z,94795.16
2022-10-17T09:02:13.564Z,94804.38
2022-10-17T09:04:49.894Z,94790.72
2022-10-17T09:07:21.117Z,94796.28
2022-10-17T09:09:57.470Z,94790.44
2022-10-17T09:12:29.287Z,94797.63
2022-10-17T09:15:02.711Z,94797.41
2022-10-17T09:17:37.329Z,94794.59
2022-10-17T09:20:19.815Z,94793.41
2022-10-17T09:23:10.203Z,94801.16
2022-10-17T09:25:47.682Z,94795.25
2022-10-17T09:28:21.327Z,94796.47
2022-10-17T09:30:58.333Z,94803.94
2022-10-17T09:34:00.219Z,94790.19
2022-10-17T09:36:32.966Z,94798.81
2022-10-17T09:39:02.213Z,94806.25
2022-10-17T09:41:46.846Z,94801.06
2022-10-17T09:44:18.075Z,94797.75
2022-10-17T09:46:52.407Z,94801.69
2022-10-17T09:49:23.652Z,94791.28
2022-10-17T09:51:51.091Z,94802.22
2022-10-17T09:54:26.784Z,94784.56
2022-10-17T09:57:02.008Z,94795.16
2022-10-17T09:59:34.276Z,94794.09
2022-10-17T10:02:09.219Z,94790.28
2022-10-17T10:04:59.655Z,94791.84
2022-10-17T10:07:29.106Z,94783.66
2022-10-17T10:09:57.312Z,94786.16
2022-10-17T10:12:29.721Z,94775.44
2022-10-17T10:14:58.041Z,94785.66
2022-10-17T10:17:43.287Z,94775.13
2022-10-17T10:20:37.457Z,94772.03
2022-10-17T10:23:24.740Z,94783.34
2022-10-17T10:26:20.935Z,94765.53
2022-10-17T10:29:02.257Z,94760.94
2022-10-17T10:31:31.903Z,94769.03
2022-10-17T10:34:00.465Z,94759.31
2022-10-17T10:36:42.368Z,94762.94
2022-10-17T10:39:12.512Z,94759.59
2022-10-17T10:41:46.727Z,94754.06
2022-10-17T10:44:15.599Z,94759.25
2022-10-17T10:46:42.697Z,94765.16
2022-10-17T10:49:29.009Z,94760.06
2022-10-17T10:51:58.825Z,94756.06
2022-10-17T10:54:29.997Z,94755.69
2022-10-17T10:56:59.981Z,94747.44
2022-10-17T10:59:39.852Z,94750.72
2022-10-17T11:02:07.586Z,94752.19
2022-10-17T11:04:38.372Z,94748.75
2022-10-17T11:07:10.433Z,94740.88
2022-10-17T11:09:38.127Z,94740.09
2022-10-17T11:12:13.595Z,94739.75
2022-10-17T11:14:45.119Z,94738.31
2022-10-17T11:17:32.663Z,94739.03
2022-10-17T11:20:03.306Z,94738.91
2022-10-17T11:22:37.643Z,94739.44
2022-10-17T11:25:24.201Z,94730.06
2022-10-17T11:27:51.426Z,94728.44
2022-10-17T11:30:19.040Z,94731.16
2022-10-17T11:32:53.954Z,94725.50
2022-10-17T11:35:25.239Z,94722.00
2022-10-17T11:38:14.066Z,94716.34
2022-10-17T11:40:44.686Z,94715.94
2022-10-17T11:43:20.582Z,94723.25
2022-10-17T11:45:55.669Z,94713.38
2022-10-17T11:48:32.025Z,94717.53
2022-10-17T11:54:09.447Z,94708.72
2022-10-17T11:56:41.809Z,94713.31
2022-10-17T11:59:29.898Z,94707.31
2022-10-17T12:02:01.747Z,94708.06
2022-10-17T12:04:43.774Z,94706.91
2022-10-17T12:07:22.473Z,94700.34
2022-10-17T12:09:53.401Z,94711.94
2022-10-17T12:12:40.586Z,94703.09
2022-10-17T12:15:14.000Z,94704.47
2022-10-17T12:17:43.985Z,94712.69
2022-10-17T12:20:17.552Z,94712.06
2022-10-17T12:22:48.434Z,94705.16
2022-10-17T12:25:22.458Z,94714.47
2022-10-17T12:27:50.524Z,94709.41
2022-10-17T12:30:19.970Z,94703.75
2022-10-17T12:33:21.989Z,94706.09
2022-10-17T12:35:51.192Z,94695.59
2022-10-17T12:38:18.300Z,94699.56
2022-10-17T12:40:49.095Z,94699.28
2022-10-17T12:43:16.664Z,94689.47
2022-10-17T12:45:51.728Z,94686.81
2022-10-17T12:48:34.626Z,94683.06
2022-10-17T12:51:35.782Z,94688.94
2022-10-17T12:54:01.659Z,94695.84
2022-10-17T12:57:01.512Z,94685.22
2022-10-17T12:59:29.583Z,94690.78
2022-10-17T13:01:59.971Z,94698.75
2022-10-17T13:04:28.335Z,94692.34
2022-10-17T13:06:57.252Z,94691.84
2022-10-17T13:09:35.526Z,94684.94
2022-10-17T13:12:04.836Z,94690.75
2022-10-17T13:14:33.479Z,94680.19
2022-10-17T13:17:01.836Z,94694.00
2022-10-17T13:19:30.883Z,94696.09
2022-10-17T13:22:06.390Z,94689.44
2022-10-17T13:24:38.534Z,94684.41
2022-10-17T13:27:06.934Z,94689.50
2022-10-17T13:29:34.519Z,94689.47
2022-10-17T13:32:04.127Z,94687.59
2022-10-17T13:34:31.972Z,94685.69
2022-10-17T13:37:01.568Z,94681.69
2022-10-17T13:42:29.620Z,94692.09
2022-10-17T13:44:57.963Z,94682.47
2022-10-17T13:47:27.595Z,94685.72
2022-10-17T13:49:55.751Z,94687.91
2022-10-17T13:52:27.051Z,94687.53
2022-10-17T13:54:56.128Z,94683.09
2022-10-17T13:57:25.205Z,94688.63
2022-10-17T13:59:59.978Z,94690.31
2022-10-17T14:02:29.120Z,94688.19
2022-10-17T14:05:18.178Z,94684.84
2022-10-17T14:08:09.840Z,94691.00
2022-10-17T14:10:35.480Z,94693.44
2022-10-17T14:13:04.549Z,94690.84
2022-10-17T14:15:33.948Z,94700.62
2022-10-17T14:18:07.537Z,94698.34
2022-10-17T14:23:36.509Z,94704.59
2022-10-17T14:26:08.591Z,94690.78
2022-10-17T14:28:36.824Z,94700.59
2022-10-17T14:31:14.313Z,94695.59
2022-10-17T14:33:50.525Z,94701.50
2022-10-17T14:36:19.651Z,94697.66
2022-10-17T14:38:48.370Z,94697.19
2022-10-17T14:44:08.488Z,94700.47
2022-10-17T14:46:36.219Z,94705.16
2022-10-17T14:49:19.430Z,94710.63
2022-10-17T14:52:11.406Z,94705.47
2022-10-17T14:54:40.782Z,94713.22
2022-10-17T14:57:17.195Z,94723.69
2022-10-17T14:59:59.659Z,94719.53
2022-10-17T15:02:28.754Z,94723.25
2022-10-17T15:04:56.320Z,94722.69
2022-10-17T15:07:24.081Z,94736.44
2022-10-17T15:09:52.673Z,94737.13
2022-10-17T15:12:21.618Z,94739.16
2022-10-17T15:14:49.293Z,94739.19
2022-10-17T15:17:20.834Z,94743.28
2022-10-17T15:19:48.398Z,94736.88
2022-10-17T15:22:18.585Z,94740.94
2022-10-17T15:24:46.467Z,94741.28
2022-10-17T15:27:18.143Z,94741.66
2022-10-17T15:29:45.913Z,94744.84
2022-10-17T15:32:13.513Z,94753.31
2022-10-17T15:34:41.312Z,94756.91
2022-10-17T15:37:15.605Z,94764.50
2022-10-17T15:39:42.728Z,94753.56
2022-10-17T15:42:11.798Z,94767.50
2022-10-17T15:44:40.546Z,94777.16
2022-10-17T15:47:11.295Z,94765.00
2022-10-17T15:49:38.772Z,94770.19
2022-10-17T15:52:08.792Z,94771.25
2022-10-17T15:54:36.650Z,94774.13
2022-10-17T15:57:04.250Z,94776.56
2022-10-17T15:59:32.621Z,94775.78
2022-10-17T16:01:59.895Z,94781.38
2022-10-17T16:04:29.225Z,94780.87
2022-10-17T16:06:56.315Z,94790.59
2022-10-17T16:09:23.563Z,94797.00
2022-10-17T16:11:51.089Z,94797.84
2022-10-17T16:14:18.377Z,94793.88
2022-10-17T16:16:45.633Z,94801.13
2022-10-17T16:19:13.131Z,94811.03
2022-10-17T16:21:41.031Z,94816.19
2022-10-17T16:24:10.663Z,94817.13
2022-10-17T16:26:39.044Z,94822.59
2022-10-17T16:29:06.237Z,94819.38
2022-10-17T16:31:34.798Z,94826.91
2022-10-17T16:34:03.200Z,94824.03
2022-10-17T16:36:30.389Z,94830.97
2022-10-17T16:38:57.802Z,94835.69
2022-10-17T16:41:26.617Z,94831.66
2022-10-17T16:43:54.790Z,94838.59
2022-10-17T16:46:22.468Z,94841.87
2022-10-17T16:48:50.402Z,94843.28
2022-10-17T16:51:18.928Z,94850.38
2022-10-17T16:53:46.768Z,94857.91
2022-10-17T16:56:15.318Z,94858.25
2022-10-17T16:58:42.922Z,94859.47
2022-10-17T17:01:15.274Z,94858.56
2022-10-17T17:03:43.765Z,94865.91
2022-10-17T17:06:15.934Z,94865.03
2022-10-17T17:08:43.792Z,94868.84
2022-10-17T17:11:13.847Z,94872.09
2022-10-17T17:13:42.803Z,94874.00
2022-10-17T17:16:14.936Z,94873.84
2022-10-17T17:18:42.226Z,94886.34
2022-10-17T17:21:10.707Z,94884.91
2022-10-17T17:23:39.588Z,94891.16
2022-10-17T17:26:07.982Z,94886.97
2022-10-17T17:28:35.864Z,94885.53
2022-10-17T17:31:02.987Z,94888.38
2022-10-17T17:33:30.350Z,94895.22
2022-10-17T17:35:58.947Z,94894.22
2022-10-17T17:38:28.424Z,94895.41
2022-10-17T17:40:56.728Z,94898.22
2022-10-17T17:43:25.149Z,94897.16
2022-10-17T17:45:52.250Z,94902.34
2022-10-17T17:48:19.462Z,94908.22
2022-10-17T17:50:47.238Z,94908.00
2022-10-17T17:53:15.395Z,94897.34
2022-10-17T17:55:42.583Z,94912.22
2022-10-17T17:58:11.336Z,94916.00
2022-10-17T18:00:38.853Z,94913.69
2022-10-17T18:03:06.787Z,94914.75
2022-10-17T18:05:37.112Z,94917.94
2022-10-17T18:08:06.779Z,94914.53
2022-10-17T18:10:34.242Z,94917.47
2022-10-17T18:13:01.373Z,94917.84
2022-10-17T18:15:28.535Z,94923.34
2022-10-17T18:17:55.924Z,94923.50
2022-10-17T18:20:23.201Z,94919.13
2022-10-17T18:22:50.211Z,94919.41
2022-10-17T18:25:17.616Z,94912.28
2022-10-17T18:27:44.694Z,94926.09
2022-10-17T18:30:11.932Z,94925.66
2022-10-17T18:32:40.835Z,94923.09
2022-10-17T18:35:08.093Z,94926.72
2022-10-17T18:37:35.205Z,94932.06
2022-10-17T18:40:03.287Z,94929.44
2022-10-17T18:42:30.777Z,94924.03
2022-10-17T18:44:58.030Z,94929.31
2022-10-17T18:47:25.452Z,94928.31
2022-10-17T18:49:52.584Z,94933.50
2022-10-17T18:52:19.747Z,94936.22
2022-10-17T18:54:47.139Z,94930.34
2022-10-17T18:57:14.264Z,94938.00
2022-10-17T18:59:41.385Z,94943.84
2022-10-17T19:02:13.009Z,94940.31
2022-10-17T19:04:40.499Z,94944.75
2022-10-17T19:07:07.624Z,94947.63
2022-10-17T19:09:35.431Z,94947.91
2022-10-17T19:12:02.492Z,94952.66
2022-10-17T19:14:30.682Z,94954.47
2022-10-17T19:16:59.797Z,94956.53
2022-10-17T19:19:27.144Z,94947.63
2022-10-17T19:21:54.315Z,94947.44
2022-10-17T19:24:22.822Z,94956.75
2022-10-17T19:26:50.972Z,94955.41
2022-10-17T19:29:18.388Z,94953.13
2022-10-17T19:31:46.687Z,94962.44
2022-10-17T19:34:14.201Z,94961.41
2022-10-17T19:36:41.856Z,94962.13
2022-10-17T19:39:14.331Z,94958.53
2022-10-17T19:41:42.413Z,94959.19
2022-10-17T19:44:10.250Z,94961.66
2022-10-17T19:46:37.357Z,94963.03
2022-10-17T19:49:04.985Z,94965.34
2022-10-17T19:51:32.868Z,94963.09
2022-10-17T19:54:00.793Z,94964.81
2022-10-17T19:56:29.080Z,94963.69
2022-10-17T19:58:57.242Z,94971.56
2022-10-17T20:01:29.414Z,94970.06
2022-10-17T20:03:57.134Z,94972.75
2022-10-17T20:06:24.784Z,94978.78
2022-10-17T20:08:51.845Z,94970.34
2022-10-17T20:11:20.747Z,94975.81
2022-10-17T20:27:27.870Z,94978.87
2022-10-17T20:29:55.719Z,94983.78
2022-10-17T20:32:22.816Z,94981.44
2022-10-17T20:34:49.957Z,94978.25
2022-10-17T20:37:17.354Z,94975.44
2022-10-17T20:39:44.556Z,94979.63
2022-10-17T20:42:11.592Z,94981.22
2022-10-17T20:44:39.105Z,94973.25
2022-10-17T20:47:15.966Z,94970.47
2022-10-17T20:49:43.826Z,94967.41
2022-10-17T20:52:11.398Z,94973.06
2022-10-17T20:54:38.603Z,94980.09
2022-10-17T20:57:06.828Z,94973.09
2022-10-17T20:59:36.205Z,94974.38
2022-10-17T21:02:03.961Z,94976.81
2022-10-17T21:04:47.484Z,94982.34
2022-10-17T21:07:14.984Z,94978.19
2022-10-17T21:09:42.466Z,94982.03
2022-10-17T21:12:09.758Z,94974.75
2022-10-17T21:14:36.841Z,94981.06
2022-10-17T21:17:05.506Z,94983.34
2022-10-17T21:19:32.818Z,94976.69
2022-10-17T21:32:55.619Z,94978.31
2022-10-17T21:35:23.436Z,94981.84
2022-10-17T21:37:51.275Z,94984.09
2022-10-17T21:40:18.475Z,94980.34
2022-10-17T21:42:45.891Z,94978.41
2022-10-17T21:45:15.872Z,94980.53
2022-10-17T21:48:11.567Z,94984.44
2022-10-17T21:50:39.524Z,94983.75
2022-10-17T21:53:06.886Z,94984.91
2022-10-17T21:55:35.959Z,94983.13
2022-10-17T21:58:03.808Z,94973.56
2022-10-17T22:00:31.161Z,94976.16
2022-10-17T22:02:58.542Z,94984.09
2022-10-17T22:05:25.633Z,94975.19
2022-10-17T22:07:52.749Z,94976.50
2022-10-17T22:10:20.144Z,94979.56
2022-10-17T22:12:47.357Z,94984.72
2022-10-17T22:17:46.817Z,94967.38
2022-10-17T22:20:14.218Z,94976.78
2022-10-17T22:22:41.334Z,94973.22
2022-10-17T22:25:09.007Z,94972.75
2022-10-17T22:27:36.112Z,94971.28
2022-10-17T22:30:03.862Z,94968.69
2022-10-17T22:32:31.275Z,94971.22
2022-10-17T22:34:58.362Z,94970.44
2022-10-17T22:37:25.457Z,94968.06
2022-10-17T22:39:52.962Z,94975.28
2022-10-17T22:42:20.039Z,94963.22
2022-10-17T22:44:47.899Z,94966.22
2022-10-17T22:47:15.393Z,94961.50
2022-10-17T22:49:42.458Z,94964.94
2022-10-17T22:52:09.733Z,94961.31
2022-10-17T22:54:37.135Z,94963.81
2022-10-17T22:57:05.362Z,94954.78
2022-10-17T22:59:33.520Z,94961.13
2022-10-17T23:02:00.995Z,94958.81
2022-10-17T23:04:28.118Z,94958.84
2022-10-17T23:06:55.201Z,94962.34
2022-10-17T23:09:22.686Z,94956.53
2022-10-17T23:11:49.786Z,94957.50
2022-10-17T23:14:17.478Z,94956.19
2022-10-17T23:16:44.914Z,94960.06
2022-10-17T23:19:12.017Z,94956.37
2022-10-17T23:21:39.118Z,94970.06
2022-10-17T23:24:06.771Z,94962.53
2022-10-17T23:26:33.887Z,94960.31
2022-10-17T23:29:01.080Z,94956.81
2022-10-17T23:31:28.585Z,94961.09
2022-10-17T23:33:55.693Z,94954.56
2022-10-17T23:36:22.951Z,94952.03
2022-10-17T23:38:52.658Z,94961.72
2022-10-17T23:41:22.188Z,94954.53
2022-10-17T23:43:49.334Z,94957.16
2022-10-17T23:46:17.106Z,94957.66
2022-10-17T23:48:44.196Z,94948.53
2022-10-17T23:51:11.533Z,94949.72
2022-10-17T23:53:39.501Z,94943.78
2022-10-17T23:56:07.936Z,94937.97
2022-10-17T23:58:35.090Z,94938.44
